Time;durP1;ratioP1;P1;durP2;ratioP2;P2;SDS_P1;SDS_P2;PMS_P1;PMS_P2;Temp;Humidity;BMP_temperature;BMP_pressure;BME280_temperature;BME280_humidity;BME280_pressure;Samples;Min_cycle;Max_cycle;Signal;HPM_P1;HPM_P2
2023/03/18 00:00:32;;;;;;;6.37;5.87;;;;;;;-145.53;100.00;64590.91;6334441;28;20800;-61
2023/03/18 00:03:41;;;;;;;5.80;5.30;;;;;;;-145.53;100.00;64590.91;6335265;28;20429;-60
2023/03/18 00:06:52;;;;;;;6.70;6.10;;;;;;;-145.53;100.00;64590.91;6323254;28;20526;-61
2023/03/18 00:10:01;;;;;;;6.93;6.30;;;;;;;-145.53;100.00;64590.91;6335156;28;20545;-62
2023/03/18 00:13:14;;;;;;;6.00;5.50;;;;;;;-145.53;100.00;64590.91;6320475;28;20937;-61
2023/03/18 00:16:25;;;;;;;7.03;6.43;;;;;;;-145.53;100.00;64590.91;6334732;28;20429;-62
2023/03/18 00:19:35;;;;;;;6.93;6.33;;;;;;;-145.53;100.00;64590.91;6323654;28;20441;-61
2023/03/18 00:22:47;;;;;;;6.10;5.60;;;;;;;-145.53;100.00;64590.91;6335020;28;20437;-61
2023/03/18 00:26:01;;;;;;;6.63;6.10;;;;;;;-145.53;100.00;64590.91;6333631;28;20438;-61
2023/03/18 00:29:09;;;;;;;5.63;5.20;;;;;;;-145.53;100.00;64590.91;6328548;28;20441;-60
2023/03/18 00:32:17;;;;;;;6.67;6.07;;;;;;;-145.53;100.00;64590.91;6328863;28;20441;-60
2023/03/18 00:35:29;;;;;;;6.20;5.70;;;;;;;-145.53;100.00;64590.91;6333545;28;20868;-60
2023/03/18 00:38:44;;;;;;;5.80;5.40;;;;;;;-145.53;100.00;64590.91;6334160;28;20437;-60
2023/03/18 00:41:51;;;;;;;5.47;5.07;;;;;;;-145.53;100.00;64590.91;6321429;28;20434;-60
2023/03/18 00:45:05;;;;;;;5.80;5.30;;;;;;;-145.53;100.00;64590.91;6333504;28;20429;-61
2023/03/18 00:48:13;;;;;;;5.40;5.00;;;;;;;-145.53;100.00;64590.91;6339656;28;20441;-61
2023/03/18 00:51:21;;;;;;;5.57;5.07;;;;;;;-145.53;100.00;64590.91;6319560;28;20491;-60
2023/03/18 00:54:31;;;;;;;5.07;4.57;;;;;;;-145.53;100.00;64590.91;6322115;28;20947;-60
2023/03/18 00:57:38;;;;;;;5.20;4.80;;;;;;;-145.53;100.00;64590.91;6318677;28;20935;-60
2023/03/18 01:00:48;;;;;;;5.17;4.77;;;;;;;-145.53;100.00;64590.91;6334310;28;20430;-61
2023/03/18 01:04:00;;;;;;;6.37;5.77;;;;;;;-145.53;100.00;64590.91;6323868;28;20440;-59
2023/03/18 01:07:11;;;;;;;5.73;5.33;;;;;;;-145.53;100.00;64590.91;6344772;28;20440;-61
2023/03/18 01:10:23;;;;;;;5.70;5.20;;;;;;;-145.53;100.00;64590.91;6333842;28;20441;-60
2023/03/18 01:13:34;;;;;;;7.73;7.03;;;;;;;-145.53;100.00;64590.91;6333329;28;20436;-59
2023/03/18 01:16:42;;;;;;;7.03;6.40;;;;;;;-145.53;100.00;64590.91;6322442;28;20448;-60
2023/03/18 01:19:51;;;;;;;6.70;6.10;;;;;;;-145.53;100.00;64590.91;6333819;28;20429;-59
2023/03/18 01:23:01;;;;;;;7.30;6.60;;;;;;;-145.53;100.00;64590.91;6357879;28;20957;-59
2023/03/18 01:26:18;;;;;;;6.90;6.30;;;;;;;-145.53;100.00;64590.91;6329915;28;20433;-59
2023/03/18 01:29:26;;;;;;;7.13;6.50;;;;;;;-145.53;100.00;64590.91;6331912;28;20463;-58
2023/03/18 01:32:41;;;;;;;7.83;7.03;;;;;;;-145.53;100.00;64590.91;6353322;28;20420;-59
2023/03/18 01:35:57;;;;;;;7.20;6.50;;;;;;;-145.53;100.00;64590.91;6348362;28;20469;-59
2023/03/18 01:39:06;;;;;;;8.03;7.23;;;;;;;-145.53;100.00;64590.91;6329396;28;20844;-59
2023/03/18 01:42:22;;;;;;;6.73;6.03;;;;;;;-145.53;100.00;64590.91;6355749;28;20929;-59
2023/03/18 01:45:32;;;;;;;6.90;6.30;;;;;;;-145.53;100.00;64590.91;6333931;28;20445;-59
2023/03/18 01:48:44;;;;;;;7.37;6.67;;;;;;;-145.53;100.00;64590.91;6347164;28;20444;-59
2023/03/18 01:52:01;;;;;;;7.37;6.73;;;;;;;-145.53;100.00;64590.91;6348696;27;20440;-58
2023/03/18 01:55:13;;;;;;;7.50;6.80;;;;;;;-145.53;100.00;64590.91;6363155;28;20444;-58
2023/03/18 01:58:33;;;;;;;6.90;6.30;;;;;;;-145.53;100.00;64590.91;6363643;28;20558;-59
2023/03/18 02:01:51;;;;;;;6.63;6.07;;;;;;;-145.53;100.00;64590.91;6350656;27;21009;-60
2023/03/18 02:05:05;;;;;;;6.90;6.30;;;;;;;-145.53;100.00;64590.91;6362704;28;21035;-58
2023/03/18 02:08:12;;;;;;;6.70;6.20;;;;;;;-145.53;100.00;64590.91;6362779;28;20486;-59
2023/03/18 02:11:22;;;;;;;6.90;6.30;;;;;;;-145.53;100.00;64590.91;6362176;28;20474;-59
2023/03/18 02:14:31;;;;;;;6.87;6.27;;;;;;;-145.53;100.00;64590.91;6343497;27;20525;-59
2023/03/18 02:17:43;;;;;;;6.83;6.23;;;;;;;-145.53;100.00;64590.91;6362546;28;20439;-59
2023/03/18 02:21:12;;;;;;;6.47;5.87;;;;;;;-145.53;100.00;64590.91;6357305;28;20922;-59
2023/03/18 02:24:30;;;;;;;7.00;6.40;;;;;;;-145.53;100.00;64590.91;6350995;28;20557;-60
2023/03/18 02:27:46;;;;;;;7.43;6.83;;;;;;;-145.53;100.00;64590.91;6362600;28;20735;-59
2023/03/18 02:30:58;;;;;;;7.40;6.70;;;;;;;-145.53;100.00;64590.91;6362195;28;20515;-59
2023/03/18 02:34:14;;;;;;;7.47;6.87;;;;;;;-145.53;100.00;64590.91;6361148;28;20959;-58
2023/03/18 02:37:26;;;;;;;8.00;7.20;;;;;;;-145.53;100.00;64590.91;6350676;27;20432;-59
2023/03/18 02:40:36;;;;;;;8.53;7.83;;;;;;;-145.53;100.00;64590.91;6362173;28;20413;-60
2023/03/18 02:43:48;;;;;;;8.40;7.60;;;;;;;-145.53;100.00;64590.91;6361868;28;20435;-61
2023/03/18 02:46:58;;;;;;;8.17;7.47;;;;;;;-145.53;100.00;64590.91;6351214;28;20450;-59
2023/03/18 02:50:10;;;;;;;8.00;7.30;;;;;;;-145.53;100.00;64590.91;6361820;28;20436;-60
2023/03/18 02:53:27;;;;;;;7.87;7.17;;;;;;;-145.53;100.00;64590.91;6361622;27;20470;-60
2023/03/18 02:56:42;;;;;;;8.00;7.30;;;;;;;-145.53;100.00;64590.91;6362137;27;20429;-62
2023/03/18 02:59:57;;;;;;;8.60;7.80;;;;;;;-145.53;100.00;64590.91;6351029;27;20535;-60
2023/03/18 03:03:07;;;;;;;8.30;7.50;;;;;;;-145.53;100.00;64590.91;6360371;27;20428;-61
2023/03/18 03:06:16;;;;;;;9.10;8.20;;;;;;;-145.53;100.00;64590.91;6360796;27;20443;-60
2023/03/18 03:09:23;;;;;;;8.00;7.20;;;;;;;-145.53;100.00;64590.91;6345045;28;20535;-60
2023/03/18 03:12:34;;;;;;;8.57;7.77;;;;;;;-145.53;100.00;64590.91;6355960;28;20440;-60
2023/03/18 03:15:48;;;;;;;7.90;7.20;;;;;;;-145.53;100.00;64590.91;6350109;28;20516;-60
2023/03/18 03:18:59;;;;;;;7.87;7.17;;;;;;;-145.53;100.00;64590.91;6361792;28;20920;-63
2023/03/18 03:22:10;;;;;;;7.83;7.23;;;;;;;-145.53;100.00;64590.91;6350198;27;20440;-60
2023/03/18 03:25:21;;;;;;;8.73;7.93;;;;;;;-145.53;100.00;64590.91;6345744;28;20429;-61
2023/03/18 03:28:35;;;;;;;8.40;7.60;;;;;;;-145.53;100.00;64590.91;6361231;27;20791;-60
2023/03/18 03:31:49;;;;;;;7.80;7.10;;;;;;;-145.53;100.00;64590.91;6359826;27;20943;-61
2023/03/18 03:35:01;;;;;;;8.43;7.53;;;;;;;-145.53;100.00;64590.91;6341668;28;20455;-60
2023/03/18 03:38:08;;;;;;;8.77;7.70;;;;;;;-145.53;100.00;64590.91;6361581;27;20927;-60
2023/03/18 03:41:17;;;;;;;8.20;7.50;;;;;;;-145.53;100.00;64590.91;6360827;27;20524;-60
2023/03/18 03:44:27;;;;;;;8.87;8.07;;;;;;;-145.53;100.00;64590.91;6349594;27;20825;-60
2023/03/18 03:47:42;;;;;;;8.00;7.30;;;;;;;-145.53;100.00;64590.91;6335143;28;20473;-61
2023/03/18 03:50:54;;;;;;;8.93;8.13;;;;;;;-145.53;100.00;64590.91;6356812;28;20424;-61
2023/03/18 03:54:06;;;;;;;9.40;8.40;;;;;;;-145.53;100.00;64590.91;6361189;28;20519;-61
2023/03/18 03:57:15;;;;;;;8.03;7.33;;;;;;;-145.53;100.00;64590.91;6349156;27;20502;-60
2023/03/18 04:00:25;;;;;;;7.97;7.37;;;;;;;-145.53;100.00;64590.91;6360225;27;20432;-61
2023/03/18 04:03:39;;;;;;;7.17;6.57;;;;;;;-145.53;100.00;64590.91;6357595;27;20424;-60
2023/03/18 04:06:50;;;;;;;7.90;7.20;;;;;;;-145.53;100.00;64590.91;6351820;28;20525;-61
2023/03/18 04:09:56;;;;;;;7.80;7.10;;;;;;;-145.53;100.00;64590.91;6360087;28;20952;-60
2023/03/18 04:13:04;;;;;;;6.70;6.03;;;;;;;-145.53;100.00;64590.91;6360186;27;20515;-60
2023/03/18 04:16:18;;;;;;;6.87;6.27;;;;;;;-145.53;100.00;64590.91;6359670;28;20456;-61
2023/03/18 04:19:33;;;;;;;7.23;6.53;;;;;;;-145.53;100.00;64590.91;6349103;28;20432;-60
2023/03/18 04:22:45;;;;;;;7.30;6.70;;;;;;;-145.53;100.00;64590.91;6360440;27;20417;-61
2023/03/18 04:25:55;;;;;;;7.70;7.00;;;;;;;-145.53;100.00;64590.91;6360104;27;20486;-60
2023/03/18 04:29:04;;;;;;;7.40;6.70;;;;;;;-145.53;100.00;64590.91;6355117;27;20797;-61
2023/03/18 04:32:13;;;;;;;7.40;6.70;;;;;;;-145.53;100.00;64590.91;6353862;27;20432;-60
2023/03/18 04:35:24;;;;;;;7.20;6.60;;;;;;;-145.53;100.00;64590.91;6359875;28;20929;-60
2023/03/18 04:38:32;;;;;;;7.30;6.60;;;;;;;-145.53;100.00;64590.91;6359757;28;21042;-60
2023/03/18 04:41:48;;;;;;;7.83;7.03;;;;;;;-145.53;100.00;64590.91;6349125;27;20948;-61
2023/03/18 04:44:57;;;;;;;7.87;7.10;;;;;;;-145.53;100.00;64590.91;6359803;27;20429;-60
2023/03/18 04:48:09;;;;;;;7.80;7.10;;;;;;;-145.53;100.00;64590.91;6360370;27;20972;-62
2023/03/18 04:51:21;;;;;;;7.57;6.97;;;;;;;-145.53;100.00;64590.91;6360337;28;20432;-62
2023/03/18 04:54:33;;;;;;;8.00;7.30;;;;;;;-145.53;100.00;64590.91;6349424;27;20432;-61
2023/03/18 04:57:41;;;;;;;9.87;8.97;;;;;;;-145.53;100.00;64590.91;6359532;28;20777;-61
2023/03/18 05:00:46;;;;;;;9.00;8.30;;;;;;;-145.53;100.00;64590.91;6358449;28;20425;-61
2023/03/18 05:03:54;;;;;;;9.87;9.00;;;;;;;-145.53;100.00;64590.91;6350815;27;20448;-62
2023/03/18 05:07:10;;;;;;;10.97;10.03;;;;;;;-145.53;100.00;64590.91;6333504;28;20822;-62
2023/03/18 05:10:19;;;;;;;12.10;11.00;;;;;;;-145.53;100.00;64590.91;6354283;28;20443;-61
2023/03/18 05:13:26;;;;;;;12.77;11.67;;;;;;;-145.53;100.00;64590.91;6359623;27;20451;-61
2023/03/18 05:16:36;;;;;;;12.70;11.60;;;;;;;-145.53;100.00;64590.91;6335115;28;20456;-61
2023/03/18 05:19:49;;;;;;;12.50;11.40;;;;;;;-145.53;100.00;64590.91;6358952;27;20914;-62
2023/03/18 05:22:58;;;;;;;12.40;11.30;;;;;;;-145.53;100.00;64590.91;6358819;28;20948;-60
2023/03/18 05:26:06;;;;;;;11.53;10.50;;;;;;;-145.53;100.00;64590.91;6356958;27;20432;-60
2023/03/18 05:29:13;;;;;;;11.57;10.57;;;;;;;-145.53;100.00;64590.91;6357384;27;20808;-60
2023/03/18 05:32:23;;;;;;;12.50;11.30;;;;;;;-145.53;100.00;64590.91;6350033;28;20436;-59
2023/03/18 05:35:35;;;;;;;12.10;11.00;;;;;;;-145.53;100.00;64590.91;6363750;27;20433;-61
2023/03/18 05:38:48;;;;;;;11.57;10.57;;;;;;;-145.53;100.00;64590.91;6352045;28;20452;-60
2023/03/18 05:41:57;;;;;;;12.33;11.10;;;;;;;-145.53;100.00;64590.91;6363789;27;20443;-59
2023/03/18 05:45:07;;;;;;;11.77;10.77;;;;;;;-145.53;100.00;64590.91;6362171;27;20973;-61
2023/03/18 05:48:13;;;;;;;12.40;11.30;;;;;;;-145.53;100.00;64590.91;6363402;28;20437;-62
2023/03/18 05:51:19;;;;;;;11.43;10.43;;;;;;;-145.53;100.00;64590.91;6351793;28;20535;-64
2023/03/18 05:54:28;;;;;;;11.00;10.10;;;;;;;-145.53;100.00;64590.91;6363318;27;20429;-60
2023/03/18 05:57:40;;;;;;;11.80;10.80;;;;;;;-145.53;100.00;64590.91;6363298;27;20490;-65
2023/03/18 06:00:50;;;;;;;10.17;9.27;;;;;;;-145.53;100.00;64590.91;6356164;28;20437;-61
2023/03/18 06:04:01;;;;;;;10.20;9.30;;;;;;;-145.53;100.00;64590.91;6362223;27;20819;-63
2023/03/18 06:07:14;;;;;;;12.53;11.23;;;;;;;-145.53;100.00;64590.91;6362611;28;20825;-63
2023/03/18 06:10:25;;;;;;;11.37;10.47;;;;;;;-145.53;100.00;64590.91;6361837;27;20901;-62
2023/03/18 06:13:36;;;;;;;11.23;10.23;;;;;;;-145.53;100.00;64590.91;6350926;27;20432;-62
2023/03/18 06:16:45;;;;;;;11.80;10.80;;;;;;;-145.53;100.00;64590.91;6361152;28;20801;-63
2023/03/18 06:19:55;;;;;;;10.90;9.90;;;;;;;-145.53;100.00;64590.91;6359544;28;20417;-61
2023/03/18 06:23:04;;;;;;;11.80;10.70;;;;;;;-145.53;100.00;64590.91;6355619;27;20430;-61
2023/03/18 06:26:14;;;;;;;11.07;10.07;;;;;;;-145.53;100.00;64590.91;6338148;28;20814;-61
2023/03/18 06:29:19;;;;;;;13.53;10.80;;;;;;;-145.53;100.00;64590.91;6362722;27;20842;-60
2023/03/18 06:32:28;;;;;;;12.23;11.03;;;;;;;-145.53;100.00;64590.91;6362702;28;20423;-62
2023/03/18 06:35:34;;;;;;;15.60;14.00;;;;;;;-145.53;100.00;64590.91;6342546;27;20817;-62
2023/03/18 06:38:43;;;;;;;15.60;13.97;;;;;;;-145.53;100.00;64590.91;6362174;27;20459;-62
2023/03/18 06:41:53;;;;;;;15.17;13.57;;;;;;;-145.53;100.00;64590.91;6361491;27;20724;-63
2023/03/18 06:44:58;;;;;;;15.63;14.10;;;;;;;-145.53;100.00;64590.91;6361769;28;20535;-64
2023/03/18 06:48:02;;;;;;;17.30;14.10;;;;;;;-145.53;100.00;64590.91;6346393;28;20437;-63
2023/03/18 06:51:11;;;;;;;16.80;14.53;;;;;;;-145.53;100.00;64590.91;6358377;27;20444;-63
2023/03/18 06:54:19;;;;;;;15.83;14.13;;;;;;;-145.53;100.00;64590.91;6361782;27;20889;-61
2023/03/18 06:57:27;;;;;;;17.87;15.97;;;;;;;-145.53;100.00;64590.91;6356694;27;20429;-61
2023/03/18 07:00:34;;;;;;;17.07;15.23;;;;;;;-145.53;100.00;64590.91;6354653;28;20485;-63
2023/03/18 07:03:45;;;;;;;20.03;15.37;;;;;;;-145.53;100.00;64590.91;6361173;27;20497;-60
2023/03/18 07:06:56;;;;;;;16.83;15.00;;;;;;;-145.53;100.00;64590.91;6361951;27;20444;-61
2023/03/18 07:10:03;;;;;;;15.20;13.70;;;;;;;-145.53;100.00;64590.91;6350085;28;20441;-61
2023/03/18 07:13:12;;;;;;;14.57;13.17;;;;;;;-145.53;100.00;64590.91;6361666;28;20421;-61
2023/03/18 07:16:19;;;;;;;15.57;14.07;;;;;;;-145.53;100.00;64590.91;6362125;27;20428;-61
2023/03/18 07:19:31;;;;;;;13.80;12.47;;;;;;;-145.53;100.00;64590.91;6361698;27;20421;-61
2023/03/18 07:22:42;;;;;;;16.43;14.70;;;;;;;-145.53;100.00;64590.91;6350406;27;20493;-61
2023/03/18 07:25:51;;;;;;;15.17;13.73;;;;;;;-145.53;100.00;64590.91;6361568;27;20483;-62
2023/03/18 07:29:04;;;;;;;13.53;12.23;;;;;;;-145.53;100.00;64590.91;6361439;27;20417;-60
2023/03/18 07:32:12;;;;;;;14.10;12.60;;;;;;;-145.53;100.00;64590.91;6356023;27;20475;-61
2023/03/18 07:35:21;;;;;;;14.33;12.93;;;;;;;-145.53;100.00;64590.91;6358642;27;20497;-61
2023/03/18 07:38:29;;;;;;;13.10;11.80;;;;;;;-145.53;100.00;64590.91;6361046;27;20940;-62
2023/03/18 07:41:39;;;;;;;12.80;11.63;;;;;;;-145.53;100.00;64590.91;6361040;27;20471;-61
2023/03/18 07:44:51;;;;;;;14.00;11.60;;;;;;;-145.53;100.00;64590.91;6334457;27;20564;-61
2023/03/18 07:48:00;;;;;;;13.23;11.90;;;;;;;-145.53;100.00;64590.91;6335322;28;20441;-62
2023/03/18 07:51:13;;;;;;;13.10;11.90;;;;;;;-145.53;100.00;64590.91;6334949;28;20508;-61
2023/03/18 07:54:25;;;;;;;13.03;11.87;;;;;;;-145.53;100.00;64590.91;6335596;28;20918;-62
2023/03/18 07:57:36;;;;;;;12.70;11.50;;;;;;;-145.53;100.00;64590.91;6327329;28;20934;-62
2023/03/18 08:00:44;;;;;;;12.30;11.10;;;;;;;-145.53;100.00;64590.91;6335542;28;20893;-62
2023/03/18 08:03:50;;;;;;;12.00;10.93;;;;;;;-145.53;100.00;64590.91;6335574;28;20425;-61
2023/03/18 08:07:02;;;;;;;10.70;9.80;;;;;;;-145.53;100.00;64590.91;6323949;28;20524;-61
2023/03/18 08:10:13;;;;;;;11.00;10.00;;;;;;;-145.53;100.00;64590.91;6335366;28;20450;-60
2023/03/18 08:13:20;;;;;;;10.67;9.67;;;;;;;-145.53;100.00;64590.91;6335145;28;20515;-61
2023/03/18 08:16:32;;;;;;;10.57;9.67;;;;;;;-145.53;100.00;64590.91;6335055;28;20449;-60
2023/03/18 08:19:47;;;;;;;11.17;10.17;;;;;;;-145.53;100.00;64590.91;6323668;27;20444;-61
2023/03/18 08:22:56;;;;;;;10.30;9.40;;;;;;;-145.53;100.00;64590.91;6334939;28;20772;-61
2023/03/18 08:26:06;;;;;;;10.37;9.33;;;;;;;-145.53;100.00;64590.91;6334940;28;20551;-61
2023/03/18 08:29:17;;;;;;;11.07;9.97;;;;;;;-145.53;100.00;64590.91;6329250;28;20579;-61
2023/03/18 08:32:28;;;;;;;9.20;8.40;;;;;;;-145.53;100.00;64590.91;6329892;28;20437;-62
2023/03/18 08:35:38;;;;;;;10.63;9.70;;;;;;;-145.53;100.00;64590.91;6334934;28;20429;-61
2023/03/18 08:38:55;;;;;;;10.47;9.53;;;;;;;-145.53;100.00;64590.91;6334550;28;20782;-61
2023/03/18 08:42:04;;;;;;;10.07;9.13;;;;;;;-145.53;100.00;64590.91;6322468;28;20495;-61
2023/03/18 08:45:11;;;;;;;10.17;9.27;;;;;;;-145.53;100.00;64590.91;6326838;28;20437;-62
2023/03/18 08:48:24;;;;;;;9.03;8.23;;;;;;;-145.53;100.00;64590.91;6342025;28;20435;-60
2023/03/18 08:51:37;;;;;;;9.53;8.73;;;;;;;-145.53;100.00;64590.91;6359353;28;20554;-61
2023/03/18 08:54:50;;;;;;;9.50;8.63;;;;;;;-145.53;100.00;64590.91;6344188;28;20436;-66
2023/03/18 08:58:04;;;;;;;11.00;9.40;;;;;;;-145.53;100.00;64590.91;6326737;28;20518;-65
2023/03/18 09:01:15;;;;;;;9.87;8.90;;;;;;;-145.53;100.00;64590.91;6328741;28;20454;-67
2023/03/18 09:04:26;;;;;;;9.50;8.60;;;;;;;-145.53;100.00;64590.91;6331474;28;20444;-65
2023/03/18 09:07:31;;;;;;;9.87;9.07;;;;;;;-145.53;100.00;64590.91;6340968;28;20433;-60
2023/03/18 09:10:36;;;;;;;9.10;8.20;;;;;;;-145.53;100.00;64590.91;6340455;28;20443;-61
2023/03/18 09:13:43;;;;;;;11.03;8.50;;;;;;;-145.53;100.00;64590.91;6346581;28;20567;-62
2023/03/18 09:16:52;;;;;;;10.83;8.10;;;;;;;-145.53;100.00;64590.91;6321879;28;20532;-61
2023/03/18 09:20:04;;;;;;;8.87;7.87;;;;;;;-145.53;100.00;64590.91;6333898;28;20420;-62
2023/03/18 09:23:17;;;;;;;11.50;9.13;;;;;;;-145.53;100.00;64590.91;6339630;28;20422;-61
2023/03/18 09:26:25;;;;;;;10.27;9.37;;;;;;;-145.53;100.00;64590.91;6335505;28;20929;-61
2023/03/18 09:29:36;;;;;;;8.77;8.00;;;;;;;-145.53;100.00;64590.91;6341114;28;20760;-61
2023/03/18 09:32:48;;;;;;;9.03;8.10;;;;;;;-145.53;100.00;64590.91;6341505;28;20445;-60
2023/03/18 09:35:56;;;;;;;12.37;7.93;;;;;;;-145.53;100.00;64590.91;6339744;28;20427;-60
2023/03/18 09:39:07;;;;;;;12.13;7.83;;;;;;;-145.53;100.00;64590.91;6340710;28;20456;-61
2023/03/18 09:42:31;;;;;;;12.93;7.20;;;;;;;-145.53;100.00;64590.91;6341361;28;20473;-61
2023/03/18 09:45:45;;;;;;;11.87;6.40;;;;;;;-145.53;100.00;64590.91;6339235;28;20437;-61
2023/03/18 09:49:28;;;;;;;14.03;10.67;;;;;;;-145.53;100.00;64590.91;6347318;28;20436;-61
2023/03/18 09:52:46;;;;;;;10.33;8.43;;;;;;;-145.53;100.00;64590.91;6334051;27;20574;-61
2023/03/18 09:55:59;;;;;;;10.97;8.00;;;;;;;-145.53;100.00;64590.91;6358211;27;20431;-62
2023/03/18 09:59:16;;;;;;;11.27;8.20;;;;;;;-145.53;100.00;64590.91;6349535;28;20440;-60
2023/03/18 10:02:27;;;;;;;29.83;16.60;;;;;;;-145.53;100.00;64590.91;6339357;28;20437;-60
2023/03/18 10:05:45;;;;;;;18.97;9.93;;;;;;;-145.53;100.00;64590.91;6344240;27;20926;-60
2023/03/18 10:09:02;;;;;;;16.40;10.80;;;;;;;-145.53;100.00;64590.91;6349420;28;20417;-60
2023/03/18 10:12:18;;;;;;;12.23;8.67;;;;;;;-145.53;100.00;64590.91;6352197;27;20424;-60
2023/03/18 10:15:34;;;;;;;16.03;9.50;;;;;;;-145.53;100.00;64590.91;6356584;28;20444;-61
2023/03/18 10:18:45;;;;;;;11.67;7.57;;;;;;;-145.53;100.00;64590.91;6357351;28;20947;-61
2023/03/18 10:22:08;;;;;;;12.23;8.50;;;;;;;-145.53;100.00;64590.91;6361740;28;21087;-61
2023/03/18 10:25:25;;;;;;;11.80;7.07;;;;;;;-145.53;100.00;64590.91;6328693;28;20838;-59
2023/03/18 10:28:59;;;;;;;7.70;6.10;;;;;;;-145.53;100.00;64590.91;6345626;28;20507;-61
2023/03/18 10:32:14;;;;;;;10.80;7.60;;;;;;;-145.53;100.00;64590.91;6362206;28;20424;-60
2023/03/18 10:35:31;;;;;;;10.30;7.07;;;;;;;-145.53;100.00;64590.91;6352097;27;20467;-61
2023/03/18 10:38:39;;;;;;;11.07;7.50;;;;;;;-145.53;100.00;64590.91;6361303;27;20451;-61
2023/03/18 10:41:51;;;;;;;11.50;7.30;;;;;;;-145.53;100.00;64590.91;6362087;28;20444;-60
2023/03/18 10:45:18;;;;;;;10.00;6.87;;;;;;;-145.53;100.00;64590.91;6360150;27;20424;-60
2023/03/18 10:48:33;;;;;;;9.77;7.30;;;;;;;-145.53;100.00;64590.91;6350514;27;20953;-61
2023/03/18 10:51:48;;;;;;;10.03;7.07;;;;;;;-145.53;100.00;64590.91;6361693;27;20444;-61
2023/03/18 10:54:54;;;;;;;8.63;6.10;;;;;;;-145.53;100.00;64590.91;6357757;27;21596;-62
2023/03/18 10:58:09;;;;;;;8.83;6.13;;;;;;;-145.53;100.00;64590.91;6348762;28;20451;-62
2023/03/18 11:01:18;;;;;;;7.67;6.13;;;;;;;-145.53;100.00;64590.91;6360266;28;20490;-62
2023/03/18 11:04:29;;;;;;;8.80;5.87;;;;;;;-145.53;100.00;64590.91;6360479;27;20981;-62
2023/03/18 11:07:36;;;;;;;10.10;6.47;;;;;;;-145.53;100.00;64590.91;6362025;27;20513;-62
2023/03/18 11:10:48;;;;;;;9.80;6.47;;;;;;;-145.53;100.00;64590.91;6349004;27;20432;-62
2023/03/18 11:14:00;;;;;;;9.20;6.43;;;;;;;-145.53;100.00;64590.91;6361947;27;20964;-61
2023/03/18 11:17:21;;;;;;;9.60;6.43;;;;;;;-145.53;100.00;64590.91;6342591;28;20521;-61
2023/03/18 11:20:42;;;;;;;9.60;6.43;;;;;;;-145.53;100.00;64590.91;6355389;27;20429;-62
2023/03/18 11:24:07;;;;;;;10.47;6.27;;;;;;;-145.53;100.00;64590.91;6356129;27;20444;-61
2023/03/18 11:27:28;;;;;;;7.47;5.97;;;;;;;-145.53;100.00;64590.91;6348482;28;20784;-61
2023/03/18 11:30:48;;;;;;;8.20;6.37;;;;;;;-145.53;100.00;64590.91;6360928;28;21055;-61
2023/03/18 11:34:00;;;;;;;7.60;5.83;;;;;;;-145.53;100.00;64590.91;6349622;28;20457;-61
2023/03/18 11:37:12;;;;;;;7.00;5.70;;;;;;;-145.53;100.00;64590.91;6336531;28;20456;-61
2023/03/18 11:40:26;;;;;;;7.90;5.00;;;;;;;-145.53;100.00;64590.91;6347850;28;20901;-61
2023/03/18 11:43:36;;;;;;;5.53;5.00;;;;;;;-145.53;100.00;64590.91;6356201;28;20521;-61
2023/03/18 11:46:49;;;;;;;7.30;5.90;;;;;;;-145.53;100.00;64590.91;6354958;27;20429;-61
2023/03/18 11:50:04;;;;;;;8.10;5.00;;;;;;;-145.53;100.00;64590.91;6360698;27;20433;-61
2023/03/18 11:53:19;;;;;;;6.40;5.07;;;;;;;-145.53;100.00;64590.91;6361525;27;20542;-61
2023/03/18 11:56:36;;;;;;;8.30;5.50;;;;;;;-145.53;100.00;64590.91;6327560;27;20448;-61
2023/03/18 12:00:00;;;;;;;6.40;4.30;;;;;;;-145.53;100.00;64590.91;6337927;28;20439;-61
2023/03/18 12:03:39;;;;;;;5.40;4.20;;;;;;;-145.53;100.00;64590.91;6359237;27;20433;-61
2023/03/18 12:07:05;;;;;;;5.60;4.07;;;;;;;-145.53;100.00;64590.91;6346982;27;20783;-62
2023/03/18 12:10:20;;;;;;;4.77;3.83;;;;;;;-145.53;100.00;64590.91;6359564;27;20435;-61
2023/03/18 12:13:42;;;;;;;6.50;4.10;;;;;;;-145.53;100.00;64590.91;6357501;28;20936;-62
2023/03/18 12:16:59;;;;;;;5.20;4.03;;;;;;;-145.53;100.00;64590.91;6359690;27;20421;-61
2023/03/18 12:20:39;;;;;;;3.70;3.27;;;;;;;-145.53;100.00;64590.91;6345344;27;20456;-62
2023/03/18 12:23:58;;;;;;;3.97;3.40;;;;;;;-145.53;100.00;64590.91;6353399;28;20421;-61
2023/03/18 12:27:18;;;;;;;3.77;3.47;;;;;;;-145.53;100.00;64590.91;6357109;27;20417;-62
2023/03/18 12:30:55;;;;;;;4.10;3.80;;;;;;;-145.53;100.00;64590.91;6348561;27;20433;-61
2023/03/18 12:34:14;;;;;;;3.90;3.57;;;;;;;-145.53;100.00;64590.91;6359713;28;20498;-62
2023/03/18 12:37:32;;;;;;;3.53;3.17;;;;;;;-145.53;100.00;64590.91;6359780;27;20460;-61
2023/03/18 12:40:53;;;;;;;3.77;3.10;;;;;;;-145.53;100.00;64590.91;6354175;28;20441;-62
2023/03/18 12:44:16;;;;;;;3.70;3.37;;;;;;;-145.53;100.00;64590.91;6354893;28;20829;-60
2023/03/18 12:47:28;;;;;;;3.40;3.10;;;;;;;-145.53;100.00;64590.91;6359325;27;20952;-61
2023/03/18 12:50:39;;;;;;;3.57;3.27;;;;;;;-145.53;100.00;64590.91;6360532;27;20424;-61
2023/03/18 12:53:50;;;;;;;3.60;3.30;;;;;;;-145.53;100.00;64590.91;6348378;27;20440;-61
2023/03/18 12:57:09;;;;;;;3.50;3.20;;;;;;;-145.53;100.00;64590.91;6359313;28;20448;-61
2023/03/18 13:00:27;;;;;;;2.97;2.73;;;;;;;-145.53;100.00;64590.91;6359479;27;20429;-61
2023/03/18 13:03:39;;;;;;;3.30;2.70;;;;;;;-145.53;100.00;64590.91;6354424;28;20789;-61
2023/03/18 13:06:56;;;;;;;3.10;2.80;;;;;;;-145.53;100.00;64590.91;6352088;27;20436;-61
2023/03/18 13:10:21;;;;;;;2.63;2.43;;;;;;;-145.53;100.00;64590.91;6359188;28;20924;-61
2023/03/18 13:13:37;;;;;;;2.80;2.60;;;;;;;-145.53;100.00;64590.91;6359285;27;20904;-61
2023/03/18 13:16:51;;;;;;;3.27;2.97;;;;;;;-145.53;100.00;64590.91;6347193;28;20437;-61
2023/03/18 13:20:08;;;;;;;3.97;3.63;;;;;;;-145.53;100.00;64590.91;6346223;27;20444;-61
2023/03/18 13:23:40;;;;;;;3.00;2.70;;;;;;;-145.53;100.00;64590.91;6359050;28;20421;-61
2023/03/18 13:27:08;;;;;;;3.20;2.90;;;;;;;-145.53;100.00;64590.91;6348655;27;20435;-61
2023/03/18 13:30:32;;;;;;;3.70;3.03;;;;;;;-145.53;100.00;64590.91;6359079;27;20421;-61
2023/03/18 13:34:25;;;;;;;3.67;2.70;;;;;;;-145.53;100.00;64590.91;6351133;28;20421;-60
2023/03/18 13:38:02;;;;;;;2.63;2.43;;;;;;;-145.53;100.00;64590.91;6326312;28;20525;-60
2023/03/18 13:41:27;;;;;;;2.50;2.30;;;;;;;-145.53;100.00;64590.91;6332847;28;20445;-61
2023/03/18 13:44:45;;;;;;;2.87;2.63;;;;;;;-145.53;100.00;64590.91;6356304;28;20878;-61
2023/03/18 13:48:05;;;;;;;2.60;2.40;;;;;;;-145.53;100.00;64590.91;6359888;27;20440;-63
2023/03/18 13:51:21;;;;;;;4.20;2.77;;;;;;;-145.53;100.00;64590.91;6351764;28;20573;-61
2023/03/18 13:54:33;;;;;;;2.83;2.63;;;;;;;-145.53;100.00;64590.91;6363038;28;20425;-61
2023/03/18 13:57:56;;;;;;;2.40;2.20;;;;;;;-145.53;100.00;64590.91;6362878;28;20926;-61
2023/03/18 14:01:31;;;;;;;3.30;2.50;;;;;;;-145.53;100.00;64590.91;6344001;28;20444;-61
2023/03/18 14:04:51;;;;;;;2.40;2.20;;;;;;;-145.53;100.00;64590.91;6350007;28;20432;-61
2023/03/18 14:08:05;;;;;;;2.77;2.57;;;;;;;-145.53;100.00;64590.91;6362286;28;20425;-61
2023/03/18 14:11:46;;;;;;;2.60;2.40;;;;;;;-145.53;100.00;64590.91;6354454;28;20439;-61
2023/03/18 14:15:04;;;;;;;2.20;2.07;;;;;;;-145.53;100.00;64590.91;6352168;28;20439;-61
2023/03/18 14:18:31;;;;;;;3.13;2.83;;;;;;;-145.53;100.00;64590.91;6362968;28;20425;-61
2023/03/18 14:21:51;;;;;;;2.83;2.53;;;;;;;-145.53;100.00;64590.91;6363259;28;20420;-60
2023/03/18 14:25:39;;;;;;;2.60;2.40;;;;;;;-145.53;100.00;64590.91;6336327;28;20494;-61
2023/03/18 14:28:55;;;;;;;2.70;2.50;;;;;;;-145.53;100.00;64590.91;6362401;28;20508;-62
2023/03/18 14:32:07;;;;;;;2.40;2.20;;;;;;;-145.53;100.00;64590.91;6362812;28;20432;-62